sensor_id;sensor_type;location;lat;lon;timestamp;P1;durP1;ratioP1;P2;durP2;ratioP2
1925;SDS011;964;42.606;23.588;2022-07-29T00:01:37;10.20;;;9.20;;
1925;SDS011;964;42.606;23.588;2022-07-29T00:04:04;10.50;;;9.27;;
1925;SDS011;964;42.606;23.588;2022-07-29T00:06:32;8.97;;;7.97;;
1925;SDS011;964;42.606;23.588;2022-07-29T00:08:59;9.20;;;8.33;;
1925;SDS011;964;42.606;23.588;2022-07-29T00:11:26;12.20;;;9.07;;
1925;SDS011;964;42.606;23.588;2022-07-29T00:13:52;9.70;;;8.70;;
1925;SDS011;964;42.606;23.588;2022-07-29T00:16:19;11.00;;;8.87;;
1925;SDS011;964;42.606;23.588;2022-07-29T00:18:46;10.80;;;9.77;;
1925;SDS011;964;42.606;23.588;2022-07-29T00:21:13;9.97;;;8.60;;
1925;SDS011;964;42.606;23.588;2022-07-29T00:23:41;15.00;;;9.90;;
1925;SDS011;964;42.606;23.588;2022-07-29T00:26:07;13.97;;;8.50;;
1925;SDS011;964;42.606;23.588;2022-07-29T00:28:34;9.90;;;8.80;;
1925;SDS011;964;42.606;23.588;2022-07-29T00:31:01;14.30;;;10.00;;
1925;SDS011;964;42.606;23.588;2022-07-29T00:33:28;10.03;;;9.03;;
1925;SDS011;964;42.606;23.588;2022-07-29T00:35:55;10.87;;;9.47;;
1925;SDS011;964;42.606;23.588;2022-07-29T00:38:21;11.97;;;8.70;;
1925;SDS011;964;42.606;23.588;2022-07-29T00:40:49;10.30;;;9.20;;
1925;SDS011;964;42.606;23.588;2022-07-29T00:43:16;10.30;;;9.20;;
1925;SDS011;964;42.606;23.588;2022-07-29T00:45:43;11.50;;;9.70;;
1925;SDS011;964;42.606;23.588;2022-07-29T00:48:10;11.77;;;9.13;;
1925;SDS011;964;42.606;23.588;2022-07-29T00:50:37;9.83;;;8.83;;
1925;SDS011;964;42.606;23.588;2022-07-29T00:53:05;12.07;;;9.43;;
1925;SDS011;964;42.606;23.588;2022-07-29T00:55:33;13.47;;;11.03;;
1925;SDS011;964;42.606;23.588;2022-07-29T00:58:01;12.03;;;9.40;;
1925;SDS011;964;42.606;23.588;2022-07-29T01:00:28;11.10;;;9.90;;
1925;SDS011;964;42.606;23.588;2022-07-29T01:02:55;11.73;;;10.57;;
1925;SDS011;964;42.606;23.588;2022-07-29T01:05:23;11.97;;;9.90;;
1925;SDS011;964;42.606;23.588;2022-07-29T01:07:52;24.93;;;11.10;;
1925;SDS011;964;42.606;23.588;2022-07-29T01:10:20;15.67;;;9.70;;
1925;SDS011;964;42.606;23.588;2022-07-29T01:12:49;11.80;;;9.87;;
1925;SDS011;964;42.606;23.588;2022-07-29T01:15:18;13.63;;;10.30;;
1925;SDS011;964;42.606;23.588;2022-07-29T01:17:48;11.10;;;9.80;;
1925;SDS011;964;42.606;23.588;2022-07-29T01:20:23;12.13;;;10.20;;
1925;SDS011;964;42.606;23.588;2022-07-29T01:23:11;11.97;;;9.30;;
1925;SDS011;964;42.606;23.588;2022-07-29T01:25:54;9.87;;;8.37;;
1925;SDS011;964;42.606;23.588;2022-07-29T01:31:36;7.87;;;7.10;;
1925;SDS011;964;42.606;23.588;2022-07-29T01:34:09;7.77;;;6.20;;
1925;SDS011;964;42.606;23.588;2022-07-29T01:36:42;8.10;;;5.97;;
1925;SDS011;964;42.606;23.588;2022-07-29T01:39:14;8.47;;;6.97;;
1925;SDS011;964;42.606;23.588;2022-07-29T01:41:48;10.00;;;6.73;;
1925;SDS011;964;42.606;23.588;2022-07-29T01:44:22;7.90;;;6.87;;
1925;SDS011;964;42.606;23.588;2022-07-29T01:46:58;7.37;;;6.67;;
1925;SDS011;964;42.606;23.588;2022-07-29T01:49:27;10.53;;;6.43;;
1925;SDS011;964;42.606;23.588;2022-07-29T01:51:57;7.33;;;6.53;;
1925;SDS011;964;42.606;23.588;2022-07-29T01:54:29;9.90;;;6.57;;
1925;SDS011;964;42.606;23.588;2022-07-29T01:57:00;8.40;;;7.23;;
1925;SDS011;964;42.606;23.588;2022-07-29T01:59:29;8.83;;;6.40;;
1925;SDS011;964;42.606;23.588;2022-07-29T02:02:01;7.00;;;5.80;;
1925;SDS011;964;42.606;23.588;2022-07-29T02:04:28;7.30;;;6.60;;
1925;SDS011;964;42.606;23.588;2022-07-29T02:07:00;10.03;;;7.23;;
1925;SDS011;964;42.606;23.588;2022-07-29T02:09:30;10.20;;;6.00;;
1925;SDS011;964;42.606;23.588;2022-07-29T02:11:59;8.03;;;6.00;;
1925;SDS011;964;42.606;23.588;2022-07-29T02:14:30;10.37;;;5.97;;
1925;SDS011;964;42.606;23.588;2022-07-29T02:17:03;10.03;;;6.67;;
1925;SDS011;964;42.606;23.588;2022-07-29T02:19:31;11.00;;;6.93;;
1925;SDS011;964;42.606;23.588;2022-07-29T02:21:59;7.43;;;6.73;;
1925;SDS011;964;42.606;23.588;2022-07-29T02:24:27;8.23;;;7.00;;
1925;SDS011;964;42.606;23.588;2022-07-29T02:26:56;7.10;;;6.40;;
1925;SDS011;964;42.606;23.588;2022-07-29T02:29:26;7.13;;;6.30;;
1925;SDS011;964;42.606;23.588;2022-07-29T02:31:54;6.97;;;5.93;;
1925;SDS011;964;42.606;23.588;2022-07-29T02:34:25;7.77;;;6.30;;
1925;SDS011;964;42.606;23.588;2022-07-29T02:36:54;6.87;;;6.17;;
1925;SDS011;964;42.606;23.588;2022-07-29T02:39:22;7.60;;;6.23;;
1925;SDS011;964;42.606;23.588;2022-07-29T02:41:51;6.57;;;5.97;;
1925;SDS011;964;42.606;23.588;2022-07-29T02:44:22;6.57;;;5.17;;
1925;SDS011;964;42.606;23.588;2022-07-29T02:46:52;6.70;;;6.00;;
1925;SDS011;964;42.606;23.588;2022-07-29T02:49:29;9.13;;;5.70;;
1925;SDS011;964;42.606;23.588;2022-07-29T02:52:02;8.67;;;5.00;;
1925;SDS011;964;42.606;23.588;2022-07-29T02:54:35;6.67;;;5.80;;
1925;SDS011;964;42.606;23.588;2022-07-29T02:57:09;6.90;;;5.40;;
1925;SDS011;964;42.606;23.588;2022-07-29T02:59:40;5.33;;;4.83;;
1925;SDS011;964;42.606;23.588;2022-07-29T03:02:08;5.33;;;4.83;;
1925;SDS011;964;42.606;23.588;2022-07-29T03:04:38;6.10;;;5.60;;
1925;SDS011;964;42.606;23.588;2022-07-29T03:07:08;5.60;;;5.10;;
1925;SDS011;964;42.606;23.588;2022-07-29T03:09:37;5.67;;;5.17;;
1925;SDS011;964;42.606;23.588;2022-07-29T03:12:05;6.40;;;5.70;;
1925;SDS011;964;42.606;23.588;2022-07-29T03:14:32;7.50;;;5.90;;
1925;SDS011;964;42.606;23.588;2022-07-29T03:17:00;12.87;;;5.97;;
1925;SDS011;964;42.606;23.588;2022-07-29T03:19:26;8.67;;;5.23;;
1925;SDS011;964;42.606;23.588;2022-07-29T03:21:56;8.90;;;6.20;;
1925;SDS011;964;42.606;23.588;2022-07-29T03:24:27;7.03;;;6.33;;
1925;SDS011;964;42.606;23.588;2022-07-29T03:26:56;6.80;;;5.93;;
1925;SDS011;964;42.606;23.588;2022-07-29T03:29:23;10.00;;;7.00;;
1925;SDS011;964;42.606;23.588;2022-07-29T03:31:51;7.53;;;6.80;;
1925;SDS011;964;42.606;23.588;2022-07-29T03:34:18;8.13;;;6.00;;
1925;SDS011;964;42.606;23.588;2022-07-29T03:36:45;10.27;;;6.13;;
1925;SDS011;964;42.606;23.588;2022-07-29T03:39:14;6.20;;;5.50;;
1925;SDS011;964;42.606;23.588;2022-07-29T03:41:43;8.13;;;5.83;;
1925;SDS011;964;42.606;23.588;2022-07-29T03:44:12;7.00;;;6.30;;
1925;SDS011;964;42.606;23.588;2022-07-29T03:46:41;7.20;;;6.50;;
1925;SDS011;964;42.606;23.588;2022-07-29T03:49:10;8.60;;;6.80;;
1925;SDS011;964;42.606;23.588;2022-07-29T03:51:40;10.43;;;6.93;;
1925;SDS011;964;42.606;23.588;2022-07-29T03:54:07;9.50;;;7.23;;
1925;SDS011;964;42.606;23.588;2022-07-29T03:56:37;8.63;;;6.77;;
1925;SDS011;964;42.606;23.588;2022-07-29T03:59:05;8.23;;;7.20;;
1925;SDS011;964;42.606;23.588;2022-07-29T04:01:33;7.70;;;6.50;;
1925;SDS011;964;42.606;23.588;2022-07-29T04:04:01;7.07;;;6.37;;
1925;SDS011;964;42.606;23.588;2022-07-29T04:06:28;10.20;;;7.27;;
1925;SDS011;964;42.606;23.588;2022-07-29T04:08:55;7.87;;;6.87;;
1925;SDS011;964;42.606;23.588;2022-07-29T04:11:22;8.60;;;7.67;;
1925;SDS011;964;42.606;23.588;2022-07-29T04:13:50;9.23;;;7.57;;
1925;SDS011;964;42.606;23.588;2022-07-29T04:16:16;8.83;;;7.20;;
1925;SDS011;964;42.606;23.588;2022-07-29T04:18:43;8.03;;;6.73;;
1925;SDS011;964;42.606;23.588;2022-07-29T04:21:10;9.20;;;7.63;;
1925;SDS011;964;42.606;23.588;2022-07-29T04:23:37;7.10;;;6.33;;
1925;SDS011;964;42.606;23.588;2022-07-29T04:26:03;7.47;;;6.77;;
1925;SDS011;964;42.606;23.588;2022-07-29T04:28:30;7.13;;;6.30;;
1925;SDS011;964;42.606;23.588;2022-07-29T04:30:58;8.33;;;7.03;;
1925;SDS011;964;42.606;23.588;2022-07-29T04:33:25;7.70;;;6.90;;
1925;SDS011;964;42.606;23.588;2022-07-29T04:35:51;9.57;;;7.83;;
1925;SDS011;964;42.606;23.588;2022-07-29T04:38:18;7.23;;;6.53;;
1925;SDS011;964;42.606;23.588;2022-07-29T04:40:45;8.43;;;6.60;;
1925;SDS011;964;42.606;23.588;2022-07-29T04:43:11;7.00;;;6.30;;
1925;SDS011;964;42.606;23.588;2022-07-29T04:45:38;10.27;;;6.53;;
1925;SDS011;964;42.606;23.588;2022-07-29T04:48:07;6.73;;;6.13;;
1925;SDS011;964;42.606;23.588;2022-07-29T04:50:34;6.57;;;5.97;;
1925;SDS011;964;42.606;23.588;2022-07-29T04:53:01;6.20;;;5.53;;
1925;SDS011;964;42.606;23.588;2022-07-29T04:55:27;6.23;;;5.47;;
1925;SDS011;964;42.606;23.588;2022-07-29T04:57:54;6.33;;;5.70;;
1925;SDS011;964;42.606;23.588;2022-07-29T05:00:21;7.10;;;6.30;;
1925;SDS011;964;42.606;23.588;2022-07-29T05:02:48;6.70;;;6.10;;
1925;SDS011;964;42.606;23.588;2022-07-29T05:05:16;5.73;;;5.13;;
1925;SDS011;964;42.606;23.588;2022-07-29T05:07:43;8.13;;;5.67;;
1925;SDS011;964;42.606;23.588;2022-07-29T05:10:09;5.40;;;4.60;;
1925;SDS011;964;42.606;23.588;2022-07-29T05:12:36;6.73;;;6.13;;
1925;SDS011;964;42.606;23.588;2022-07-29T05:15:03;8.60;;;5.50;;
1925;SDS011;964;42.606;23.588;2022-07-29T05:17:31;6.53;;;5.93;;
1925;SDS011;964;42.606;23.588;2022-07-29T05:19:58;4.90;;;4.50;;
1925;SDS011;964;42.606;23.588;2022-07-29T05:22:26;6.97;;;5.67;;
1925;SDS011;964;42.606;23.588;2022-07-29T05:24:52;6.60;;;5.80;;
1925;SDS011;964;42.606;23.588;2022-07-29T05:27:19;5.40;;;4.90;;
1925;SDS011;964;42.606;23.588;2022-07-29T05:29:46;6.33;;;5.73;;
1925;SDS011;964;42.606;23.588;2022-07-29T05:32:12;5.83;;;5.33;;
1925;SDS011;964;42.606;23.588;2022-07-29T05:34:39;6.90;;;4.87;;
1925;SDS011;964;42.606;23.588;2022-07-29T05:37:06;6.57;;;5.50;;
1925;SDS011;964;42.606;23.588;2022-07-29T05:39:34;5.60;;;4.90;;
1925;SDS011;964;42.606;23.588;2022-07-29T05:42:01;5.77;;;5.20;;
1925;SDS011;964;42.606;23.588;2022-07-29T05:44:28;6.80;;;5.73;;
1925;SDS011;964;42.606;23.588;2022-07-29T05:46:54;7.20;;;6.40;;
1925;SDS011;964;42.606;23.588;2022-07-29T05:49:21;5.97;;;5.40;;
1925;SDS011;964;42.606;23.588;2022-07-29T05:51:48;9.90;;;5.50;;
1925;SDS011;964;42.606;23.588;2022-07-29T05:54:15;6.40;;;5.27;;
1925;SDS011;964;42.606;23.588;2022-07-29T05:56:43;6.00;;;5.47;;
1925;SDS011;964;42.606;23.588;2022-07-29T05:59:10;6.60;;;6.03;;
1925;SDS011;964;42.606;23.588;2022-07-29T06:01:37;5.47;;;4.83;;
1925;SDS011;964;42.606;23.588;2022-07-29T06:04:05;5.73;;;5.13;;
1925;SDS011;964;42.606;23.588;2022-07-29T06:06:32;4.93;;;4.50;;
1925;SDS011;964;42.606;23.588;2022-07-29T06:08:59;5.27;;;4.77;;
1925;SDS011;964;42.606;23.588;2022-07-29T06:11:26;5.03;;;4.00;;
1925;SDS011;964;42.606;23.588;2022-07-29T06:13:54;4.30;;;3.90;;
1925;SDS011;964;42.606;23.588;2022-07-29T06:16:21;4.70;;;4.30;;
1925;SDS011;964;42.606;23.588;2022-07-29T06:18:48;5.17;;;4.40;;
1925;SDS011;964;42.606;23.588;2022-07-29T06:21:14;5.10;;;4.60;;
1925;SDS011;964;42.606;23.588;2022-07-29T06:23:41;4.80;;;4.33;;
1925;SDS011;964;42.606;23.588;2022-07-29T06:26:08;5.23;;;4.73;;
1925;SDS011;964;42.606;23.588;2022-07-29T06:31:40;5.30;;;4.80;;
1925;SDS011;964;42.606;23.588;2022-07-29T06:34:07;4.90;;;4.47;;
1925;SDS011;964;42.606;23.588;2022-07-29T06:36:34;4.83;;;4.40;;
1925;SDS011;964;42.606;23.588;2022-07-29T06:39:03;4.87;;;4.47;;
1925;SDS011;964;42.606;23.588;2022-07-29T06:41:31;4.77;;;4.30;;
1925;SDS011;964;42.606;23.588;2022-07-29T06:43:58;4.50;;;3.70;;
1925;SDS011;964;42.606;23.588;2022-07-29T06:46:26;5.87;;;4.20;;
1925;SDS011;964;42.606;23.588;2022-07-29T06:48:53;4.53;;;4.17;;
1925;SDS011;964;42.606;23.588;2022-07-29T06:51:20;4.13;;;3.83;;
1925;SDS011;964;42.606;23.588;2022-07-29T06:53:47;4.27;;;3.87;;
1925;SDS011;964;42.606;23.588;2022-07-29T06:56:14;4.33;;;3.93;;
1925;SDS011;964;42.606;23.588;2022-07-29T06:58:41;4.70;;;4.20;;
1925;SDS011;964;42.606;23.588;2022-07-29T07:01:07;5.10;;;4.57;;
1925;SDS011;964;42.606;23.588;2022-07-29T07:03:37;3.77;;;3.47;;
1925;SDS011;964;42.606;23.588;2022-07-29T07:06:03;3.70;;;3.40;;
1925;SDS011;964;42.606;23.588;2022-07-29T07:08:30;5.23;;;3.77;;
1925;SDS011;964;42.606;23.588;2022-07-29T07:10:57;3.80;;;3.50;;
1925;SDS011;964;42.606;23.588;2022-07-29T07:13:24;3.73;;;3.17;;
1925;SDS011;964;42.606;23.588;2022-07-29T07:15:51;5.70;;;3.40;;
1925;SDS011;964;42.606;23.588;2022-07-29T07:18:18;3.37;;;3.17;;
1925;SDS011;964;42.606;23.588;2022-07-29T07:20:46;4.27;;;3.30;;
1925;SDS011;964;42.606;23.588;2022-07-29T07:23:13;3.73;;;3.43;;
1925;SDS011;964;42.606;23.588;2022-07-29T07:25:40;3.93;;;3.50;;
1925;SDS011;964;42.606;23.588;2022-07-29T07:28:07;3.40;;;3.10;;
1925;SDS011;964;42.606;23.588;2022-07-29T07:30:34;4.00;;;3.57;;
1925;SDS011;964;42.606;23.588;2022-07-29T07:33:01;3.53;;;3.10;;
1925;SDS011;964;42.606;23.588;2022-07-29T07:35:28;3.83;;;3.47;;
1925;SDS011;964;42.606;23.588;2022-07-29T07:37:57;3.43;;;3.13;;
1925;SDS011;964;42.606;23.588;2022-07-29T07:40:24;3.30;;;3.03;;
1925;SDS011;964;42.606;23.588;2022-07-29T07:42:51;4.77;;;3.47;;
1925;SDS011;964;42.606;23.588;2022-07-29T07:45:18;3.97;;;3.67;;
1925;SDS011;964;42.606;23.588;2022-07-29T07:47:44;4.47;;;3.67;;
1925;SDS011;964;42.606;23.588;2022-07-29T07:50:11;4.60;;;3.40;;
1925;SDS011;964;42.606;23.588;2022-07-29T07:52:45;3.70;;;3.37;;
1925;SDS011;964;42.606;23.588;2022-07-29T07:55:15;3.63;;;3.30;;
1925;SDS011;964;42.606;23.588;2022-07-29T07:57:42;4.10;;;3.70;;
1925;SDS011;964;42.606;23.588;2022-07-29T08:00:09;4.10;;;3.37;;
1925;SDS011;964;42.606;23.588;2022-07-29T08:02:38;3.77;;;3.47;;
1925;SDS011;964;42.606;23.588;2022-07-29T08:05:05;4.60;;;3.00;;
1925;SDS011;964;42.606;23.588;2022-07-29T08:07:33;3.70;;;3.40;;
1925;SDS011;964;42.606;23.588;2022-07-29T08:09:59;3.30;;;2.80;;
1925;SDS011;964;42.606;23.588;2022-07-29T08:12:28;5.40;;;3.20;;
1925;SDS011;964;42.606;23.588;2022-07-29T08:14:54;3.53;;;2.97;;
1925;SDS011;964;42.606;23.588;2022-07-29T08:17:21;3.77;;;2.70;;
1925;SDS011;964;42.606;23.588;2022-07-29T08:19:48;2.83;;;2.63;;
1925;SDS011;964;42.606;23.588;2022-07-29T08:22:15;3.33;;;3.03;;
1925;SDS011;964;42.606;23.588;2022-07-29T08:24:42;3.70;;;3.40;;
1925;SDS011;964;42.606;23.588;2022-07-29T08:27:09;4.00;;;3.60;;
1925;SDS011;964;42.606;23.588;2022-07-29T08:29:37;4.40;;;2.87;;
1925;SDS011;964;42.606;23.588;2022-07-29T08:32:05;3.67;;;3.37;;
1925;SDS011;964;42.606;23.588;2022-07-29T08:34:32;4.00;;;3.70;;
1925;SDS011;964;42.606;23.588;2022-07-29T08:36:58;5.90;;;3.07;;
1925;SDS011;964;42.606;23.588;2022-07-29T08:39:25;4.00;;;3.70;;
1925;SDS011;964;42.606;23.588;2022-07-29T08:41:52;3.20;;;2.87;;
1925;SDS011;964;42.606;23.588;2022-07-29T08:44:20;3.43;;;3.13;;
1925;SDS011;964;42.606;23.588;2022-07-29T08:46:48;2.83;;;2.63;;
1925;SDS011;964;42.606;23.588;2022-07-29T08:49:15;2.50;;;2.30;;
1925;SDS011;964;42.606;23.588;2022-07-29T08:51:42;3.33;;;2.50;;
1925;SDS011;964;42.606;23.588;2022-07-29T08:54:09;3.27;;;2.60;;
1925;SDS011;964;42.606;23.588;2022-07-29T08:56:37;2.70;;;2.50;;
1925;SDS011;964;42.606;23.588;2022-07-29T08:59:06;2.70;;;2.50;;
1925;SDS011;964;42.606;23.588;2022-07-29T09:01:34;3.50;;;2.27;;
1925;SDS011;964;42.606;23.588;2022-07-29T09:04:05;3.50;;;2.73;;
1925;SDS011;964;42.606;23.588;2022-07-29T09:06:38;2.60;;;2.40;;
1925;SDS011;964;42.606;23.588;2022-07-29T09:09:09;2.93;;;2.63;;
1925;SDS011;964;42.606;23.588;2022-07-29T09:11:37;2.47;;;2.27;;
1925;SDS011;964;42.606;23.588;2022-07-29T09:14:03;2.93;;;2.50;;
1925;SDS011;964;42.606;23.588;2022-07-29T09:16:47;3.97;;;2.90;;
1925;SDS011;964;42.606;23.588;2022-07-29T09:19:23;3.20;;;2.70;;
1925;SDS011;964;42.606;23.588;2022-07-29T09:21:52;2.83;;;2.23;;
1925;SDS011;964;42.606;23.588;2022-07-29T09:24:26;2.60;;;2.40;;
1925;SDS011;964;42.606;23.588;2022-07-29T09:27:03;5.07;;;2.40;;
1925;SDS011;964;42.606;23.588;2022-07-29T09:29:35;2.90;;;2.57;;
1925;SDS011;964;42.606;23.588;2022-07-29T09:32:05;3.13;;;1.97;;
1925;SDS011;964;42.606;23.588;2022-07-29T09:34:36;2.20;;;2.10;;
1925;SDS011;964;42.606;23.588;2022-07-29T09:37:03;2.40;;;2.20;;
1925;SDS011;964;42.606;23.588;2022-07-29T09:39:31;2.30;;;2.20;;
1925;SDS011;964;42.606;23.588;2022-07-29T09:42:00;2.80;;;2.50;;
1925;SDS011;964;42.606;23.588;2022-07-29T09:44:39;2.23;;;2.03;;
1925;SDS011;964;42.606;23.588;2022-07-29T09:47:07;1.97;;;1.87;;
1925;SDS011;964;42.606;23.588;2022-07-29T09:49:36;2.80;;;2.10;;
1925;SDS011;964;42.606;23.588;2022-07-29T09:52:17;2.90;;;2.47;;
1925;SDS011;964;42.606;23.588;2022-07-29T09:54:44;2.73;;;2.53;;
1925;SDS011;964;42.606;23.588;2022-07-29T09:57:21;2.90;;;2.60;;
1925;SDS011;964;42.606;23.588;2022-07-29T09:59:54;3.03;;;2.83;;
1925;SDS011;964;42.606;23.588;2022-07-29T10:02:22;3.00;;;2.80;;
1925;SDS011;964;42.606;23.588;2022-07-29T10:04:55;3.27;;;2.97;;
1925;SDS011;964;42.606;23.588;2022-07-29T10:07:22;2.97;;;2.77;;
1925;SDS011;964;42.606;23.588;2022-07-29T10:09:52;3.90;;;2.80;;
1925;SDS011;964;42.606;23.588;2022-07-29T10:12:21;3.13;;;2.93;;
1925;SDS011;964;42.606;23.588;2022-07-29T10:14:48;3.43;;;3.13;;
1925;SDS011;964;42.606;23.588;2022-07-29T10:17:15;3.47;;;3.20;;
1925;SDS011;964;42.606;23.588;2022-07-29T10:19:43;2.97;;;2.77;;
1925;SDS011;964;42.606;23.588;2022-07-29T10:22:11;3.30;;;3.10;;
1925;SDS011;964;42.606;23.588;2022-07-29T10:24:38;3.50;;;3.30;;
1925;SDS011;964;42.606;23.588;2022-07-29T10:27:06;3.40;;;3.10;;
1925;SDS011;964;42.606;23.588;2022-07-29T10:29:34;3.50;;;3.10;;
1925;SDS011;964;42.606;23.588;2022-07-29T10:32:13;3.70;;;3.40;;
1925;SDS011;964;42.606;23.588;2022-07-29T10:34:57;3.63;;;3.33;;
1925;SDS011;964;42.606;23.588;2022-07-29T10:37:40;3.80;;;3.23;;
1925;SDS011;964;42.606;23.588;2022-07-29T10:40:23;4.40;;;4.00;;
1925;SDS011;964;42.606;23.588;2022-07-29T10:43:15;4.40;;;3.80;;
1925;SDS011;964;42.606;23.588;2022-07-29T10:45:46;3.50;;;3.20;;
1925;SDS011;964;42.606;23.588;2022-07-29T10:48:15;4.47;;;3.63;;
1925;SDS011;964;42.606;23.588;2022-07-29T10:50:54;5.47;;;3.20;;
1925;SDS011;964;42.606;23.588;2022-07-29T10:53:45;3.53;;;3.20;;
1925;SDS011;964;42.606;23.588;2022-07-29T10:56:22;4.30;;;2.90;;
1925;SDS011;964;42.606;23.588;2022-07-29T11:01:51;5.18;;;3.55;;
1925;SDS011;964;42.606;23.588;2022-07-29T11:07:18;3.80;;;3.50;;
1925;SDS011;964;42.606;23.588;2022-07-29T11:09:46;4.07;;;3.78;;
1925;SDS011;964;42.606;23.588;2022-07-29T11:12:49;4.50;;;3.50;;
1925;SDS011;964;42.606;23.588;2022-07-29T11:15:17;3.45;;;3.10;;
1925;SDS011;964;42.606;23.588;2022-07-29T11:20:37;3.60;;;3.30;;
1925;SDS011;964;42.606;23.588;2022-07-29T11:23:19;3.72;;;3.42;;
1925;SDS011;964;42.606;23.588;2022-07-29T11:29:01;3.60;;;3.30;;
1925;SDS011;964;42.606;23.588;2022-07-29T11:31:35;3.10;;;2.90;;
1925;SDS011;964;42.606;23.588;2022-07-29T11:34:16;5.75;;;4.28;;
1925;SDS011;964;42.606;23.588;2022-07-29T11:39:47;3.65;;;3.00;;
1925;SDS011;964;42.606;23.588;2022-07-29T11:42:39;4.13;;;3.72;;
1925;SDS011;964;42.606;23.588;2022-07-29T11:45:12;3.97;;;3.65;;
1925;SDS011;964;42.606;23.588;2022-07-29T11:47:53;4.30;;;4.00;;
1925;SDS011;964;42.606;23.588;2022-07-29T11:50:30;4.28;;;3.78;;
1925;SDS011;964;42.606;23.588;2022-07-29T11:52:59;4.30;;;3.90;;
1925;SDS011;964;42.606;23.588;2022-07-29T11:55:28;5.70;;;3.47;;
1925;SDS011;964;42.606;23.588;2022-07-29T11:57:58;4.10;;;3.80;;
1925;SDS011;964;42.606;23.588;2022-07-29T12:00:27;4.05;;;3.75;;
1925;SDS011;964;42.606;23.588;2022-07-29T12:02:55;4.75;;;3.70;;
1925;SDS011;964;42.606;23.588;2022-07-29T12:05:33;4.00;;;3.60;;
1925;SDS011;964;42.606;23.588;2022-07-29T12:08:09;3.58;;;3.28;;
1925;SDS011;964;42.606;23.588;2022-07-29T12:10:38;3.58;;;3.28;;
1925;SDS011;964;42.606;23.588;2022-07-29T12:13:07;4.25;;;3.95;;
1925;SDS011;964;42.606;23.588;2022-07-29T12:15:35;4.13;;;3.72;;
1925;SDS011;964;42.606;23.588;2022-07-29T12:18:13;5.57;;;3.88;;
1925;SDS011;964;42.606;23.588;2022-07-29T12:20:41;4.05;;;3.75;;
1925;SDS011;964;42.606;23.588;2022-07-29T12:23:09;3.90;;;3.60;;
1925;SDS011;964;42.606;23.588;2022-07-29T12:25:38;4.13;;;3.83;;
1925;SDS011;964;42.606;23.588;2022-07-29T12:28:08;3.95;;;3.65;;
1925;SDS011;964;42.606;23.588;2022-07-29T12:30:41;4.03;;;3.72;;
1925;SDS011;964;42.606;23.588;2022-07-29T12:33:16;4.68;;;4.28;;
1925;SDS011;964;42.606;23.588;2022-07-29T12:35:47;4.25;;;3.85;;
1925;SDS011;964;42.606;23.588;2022-07-29T12:38:16;4.57;;;3.63;;
1925;SDS011;964;42.606;23.588;2022-07-29T12:40:43;4.22;;;3.83;;
1925;SDS011;964;42.606;23.588;2022-07-29T12:43:13;4.07;;;3.67;;
1925;SDS011;964;42.606;23.588;2022-07-29T12:45:42;3.92;;;3.65;;
1925;SDS011;964;42.606;23.588;2022-07-29T12:48:10;4.57;;;3.63;;
1925;SDS011;964;42.606;23.588;2022-07-29T12:50:51;5.00;;;4.60;;
1925;SDS011;964;42.606;23.588;2022-07-29T12:53:19;4.38;;;4.00;;
1925;SDS011;964;42.606;23.588;2022-07-29T12:55:46;3.75;;;3.45;;
1925;SDS011;964;42.606;23.588;2022-07-29T12:58:27;5.05;;;3.58;;
1925;SDS011;964;42.606;23.588;2022-07-29T13:00:59;4.95;;;4.28;;
1925;SDS011;964;42.606;23.588;2022-07-29T13:03:27;4.63;;;4.32;;
1925;SDS011;964;42.606;23.588;2022-07-29T13:05:54;4.60;;;4.20;;
1925;SDS011;964;42.606;23.588;2022-07-29T13:08:21;3.95;;;3.60;;
1925;SDS011;964;42.606;23.588;2022-07-29T13:10:47;5.32;;;4.00;;
1925;SDS011;964;42.606;23.588;2022-07-29T13:13:14;4.50;;;4.10;;
1925;SDS011;964;42.606;23.588;2022-07-29T13:15:43;4.10;;;3.80;;
1925;SDS011;964;42.606;23.588;2022-07-29T13:18:28;4.75;;;4.35;;
1925;SDS011;964;42.606;23.588;2022-07-29T13:20:56;3.90;;;3.65;;
1925;SDS011;964;42.606;23.588;2022-07-29T13:23:24;4.43;;;4.13;;
1925;SDS011;964;42.606;23.588;2022-07-29T13:25:51;5.07;;;4.35;;
1925;SDS011;964;42.606;23.588;2022-07-29T13:28:17;4.40;;;4.00;;
1925;SDS011;964;42.606;23.588;2022-07-29T13:30:46;4.13;;;3.83;;
1925;SDS011;964;42.606;23.588;2022-07-29T13:33:13;3.72;;;3.47;;
1925;SDS011;964;42.606;23.588;2022-07-29T13:35:40;5.53;;;3.85;;
1925;SDS011;964;42.606;23.588;2022-07-29T13:38:07;4.03;;;3.72;;
1925;SDS011;964;42.606;23.588;2022-07-29T13:40:34;3.70;;;3.40;;
1925;SDS011;964;42.606;23.588;2022-07-29T13:43:00;3.97;;;3.67;;
1925;SDS011;964;42.606;23.588;2022-07-29T13:45:27;4.40;;;3.88;;
1925;SDS011;964;42.606;23.588;2022-07-29T13:47:55;3.53;;;3.33;;
1925;SDS011;964;42.606;23.588;2022-07-29T13:50:22;3.63;;;3.33;;
1925;SDS011;964;42.606;23.588;2022-07-29T13:52:49;3.72;;;3.42;;
1925;SDS011;964;42.606;23.588;2022-07-29T13:55:16;3.95;;;3.53;;
1925;SDS011;964;42.606;23.588;2022-07-29T13:57:43;4.53;;;4.13;;
1925;SDS011;964;42.606;23.588;2022-07-29T14:00:10;4.38;;;3.97;;
1925;SDS011;964;42.606;23.588;2022-07-29T14:02:38;4.82;;;3.60;;
1925;SDS011;964;42.606;23.588;2022-07-29T14:05:07;6.07;;;3.70;;
1925;SDS011;964;42.606;23.588;2022-07-29T14:07:34;3.75;;;3.45;;
1925;SDS011;964;42.606;23.588;2022-07-29T14:10:05;4.07;;;3.78;;
1925;SDS011;964;42.606;23.588;2022-07-29T14:12:32;5.65;;;3.90;;
1925;SDS011;964;42.606;23.588;2022-07-29T14:14:59;4.53;;;4.13;;
1925;SDS011;964;42.606;23.588;2022-07-29T14:17:25;4.35;;;3.97;;
1925;SDS011;964;42.606;23.588;2022-07-29T14:19:52;3.90;;;3.60;;
1925;SDS011;964;42.606;23.588;2022-07-29T14:22:20;4.32;;;4.03;;
1925;SDS011;964;42.606;23.588;2022-07-29T14:24:47;8.23;;;4.32;;
1925;SDS011;964;42.606;23.588;2022-07-29T14:27:14;4.70;;;4.30;;
1925;SDS011;964;42.606;23.588;2022-07-29T14:29:40;4.50;;;4.10;;
1925;SDS011;964;42.606;23.588;2022-07-29T14:32:07;4.65;;;4.28;;
1925;SDS011;964;42.606;23.588;2022-07-29T14:34:35;4.80;;;4.22;;
1925;SDS011;964;42.606;23.588;2022-07-29T14:37:03;5.63;;;3.78;;
1925;SDS011;964;42.606;23.588;2022-07-29T14:39:32;3.75;;;3.45;;
1925;SDS011;964;42.606;23.588;2022-07-29T14:41:59;4.00;;;3.70;;
1925;SDS011;964;42.606;23.588;2022-07-29T14:44:25;4.50;;;4.10;;
1925;SDS011;964;42.606;23.588;2022-07-29T14:46:56;6.45;;;3.70;;
1925;SDS011;964;42.606;23.588;2022-07-29T14:49:22;4.50;;;3.83;;
1925;SDS011;964;42.606;23.588;2022-07-29T14:51:49;5.60;;;5.10;;
1925;SDS011;964;42.606;23.588;2022-07-29T14:54:16;4.43;;;4.03;;
1925;SDS011;964;42.606;23.588;2022-07-29T14:56:44;4.07;;;3.67;;
1925;SDS011;964;42.606;23.588;2022-07-29T14:59:11;4.07;;;3.77;;
1925;SDS011;964;42.606;23.588;2022-07-29T15:01:38;4.93;;;4.10;;
1925;SDS011;964;42.606;23.588;2022-07-29T15:04:04;4.50;;;3.45;;
1925;SDS011;964;42.606;23.588;2022-07-29T15:06:31;4.10;;;3.80;;
1925;SDS011;964;42.606;23.588;2022-07-29T15:08:59;4.43;;;3.57;;
1925;SDS011;964;42.606;23.588;2022-07-29T15:11:25;3.87;;;3.57;;
1925;SDS011;964;42.606;23.588;2022-07-29T15:13:53;4.75;;;4.18;;
1925;SDS011;964;42.606;23.588;2022-07-29T15:16:20;3.77;;;3.47;;
1925;SDS011;964;42.606;23.588;2022-07-29T15:18:47;4.30;;;3.90;;
1925;SDS011;964;42.606;23.588;2022-07-29T15:21:13;8.87;;;4.37;;
1925;SDS011;964;42.606;23.588;2022-07-29T15:23:40;4.00;;;3.70;;
1925;SDS011;964;42.606;23.588;2022-07-29T15:26:07;4.73;;;4.30;;
1925;SDS011;964;42.606;23.588;2022-07-29T15:28:33;3.70;;;3.40;;
1925;SDS011;964;42.606;23.588;2022-07-29T15:31:01;4.05;;;3.75;;
1925;SDS011;964;42.606;23.588;2022-07-29T15:33:28;4.18;;;3.88;;
1925;SDS011;964;42.606;23.588;2022-07-29T15:35:55;4.37;;;3.93;;
1925;SDS011;964;42.606;23.588;2022-07-29T15:38:22;3.97;;;3.67;;
1925;SDS011;964;42.606;23.588;2022-07-29T15:40:48;5.10;;;3.80;;
1925;SDS011;964;42.606;23.588;2022-07-29T15:43:15;4.13;;;3.73;;
1925;SDS011;964;42.606;23.588;2022-07-29T15:45:42;3.83;;;3.53;;